Archival Weather

Downtown Manhattan/Wall St

New York, Downtown Manhattan/Wall St (KJRB)

Report from: Friday, February 23, 2024 3:56 AM EST
Current time: Wednesday, May 29, 2024 7:39 PM EDT

Current weather – Weather history – Daily summaries
Weather forecast

Present weatherLight rain
Temperature5.6°C (42.1°F)
Wind chill4.0°C (39.2°F)
Dew point4.4°C (39.9°F)
Winds 4 kts (2.1 m/s, 4.6 mph) North-Northeast (30°)
Visibility10 mi. (16.1 km)
Clouds Ceiling: Overcast 7,500 ft. (2,286 m)
Altimeter29.57 in.Hg (1001 mB)
Precip. events Rain began 8:46 AM
Relative humidity92 %
Density altitude-604 ft. (-184 m)
Sea-level pressure100.1 kPa (1001 mB, 29.57 in.Hg)
Remarks Fully automated report
System requires maintenance
Automated weather observing station with precipitation discriminator
Precipitation sensor not operating
Pressure falling more slowly
Flight conditions Visual Meteorological Conditions
Raw dataKJRB 230856Z AUTO 03004KT 10SM -RA OVC075 06/04 A2957 RMK AO2 RAB46 SLP013 6//// T00560044 56032 PNO $
An error has occurred. This application may no longer respond until reloaded. Reload 🗙